sensor_id;sensor_type;location;lat;lon;timestamp;temperature;humidity
41481;DHT22;27217;51.220;5.308;2023-03-24T00:01:53;12.00;99.90
41481;DHT22;27217;51.220;5.308;2023-03-24T00:04:20;12.00;99.90
41481;DHT22;27217;51.220;5.308;2023-03-24T00:06:47;12.00;99.90
41481;DHT22;27217;51.220;5.308;2023-03-24T00:09:14;12.10;99.90
41481;DHT22;27217;51.220;5.308;2023-03-24T00:11:41;12.00;99.90
41481;DHT22;27217;51.220;5.308;2023-03-24T00:14:07;12.10;99.90
41481;DHT22;27217;51.220;5.308;2023-03-24T00:16:37;12.00;99.90
41481;DHT22;27217;51.220;5.308;2023-03-24T00:19:03;12.10;99.90
41481;DHT22;27217;51.220;5.308;2023-03-24T00:21:28;12.00;99.90
41481;DHT22;27217;51.220;5.308;2023-03-24T00:23:55;12.00;99.90
41481;DHT22;27217;51.220;5.308;2023-03-24T00:26:23;12.20;99.90
41481;DHT22;27217;51.220;5.308;2023-03-24T00:28:50;12.20;99.90
41481;DHT22;27217;51.220;5.308;2023-03-24T00:31:17;12.20;99.90
41481;DHT22;27217;51.220;5.308;2023-03-24T00:33:45;12.20;99.90
41481;DHT22;27217;51.220;5.308;2023-03-24T00:36:17;12.20;99.90
41481;DHT22;27217;51.220;5.308;2023-03-24T00:38:44;12.20;99.90
41481;DHT22;27217;51.220;5.308;2023-03-24T00:41:11;12.30;99.90
41481;DHT22;27217;51.220;5.308;2023-03-24T00:43:38;12.30;99.90
41481;DHT22;27217;51.220;5.308;2023-03-24T00:46:09;12.20;99.90
41481;DHT22;27217;51.220;5.308;2023-03-24T00:48:37;12.10;99.90
41481;DHT22;27217;51.220;5.308;2023-03-24T00:51:04;12.10;99.90
41481;DHT22;27217;51.220;5.308;2023-03-24T00:53:33;12.20;99.90
41481;DHT22;27217;51.220;5.308;2023-03-24T00:55:59;12.20;99.90
41481;DHT22;27217;51.220;5.308;2023-03-24T00:58:25;12.20;99.90
41481;DHT22;27217;51.220;5.308;2023-03-24T01:00:56;12.20;99.90
41481;DHT22;27217;51.220;5.308;2023-03-24T01:03:23;12.20;99.90
41481;DHT22;27217;51.220;5.308;2023-03-24T01:05:53;12.30;99.90
41481;DHT22;27217;51.220;5.308;2023-03-24T01:08:23;12.30;99.90
41481;DHT22;27217;51.220;5.308;2023-03-24T01:10:51;12.40;99.90
41481;DHT22;27217;51.220;5.308;2023-03-24T01:13:25;12.40;99.90
41481;DHT22;27217;51.220;5.308;2023-03-24T01:15:52;12.30;99.90
41481;DHT22;27217;51.220;5.308;2023-03-24T01:18:18;12.30;99.90
41481;DHT22;27217;51.220;5.308;2023-03-24T01:20:45;12.30;99.90
41481;DHT22;27217;51.220;5.308;2023-03-24T01:23:18;12.20;99.90
41481;DHT22;27217;51.220;5.308;2023-03-24T01:25:45;12.30;99.90
41481;DHT22;27217;51.220;5.308;2023-03-24T01:28:14;12.30;99.90
41481;DHT22;27217;51.220;5.308;2023-03-24T01:30:41;12.20;99.90
41481;DHT22;27217;51.220;5.308;2023-03-24T01:33:08;12.10;99.90
41481;DHT22;27217;51.220;5.308;2023-03-24T01:35:34;12.10;99.90
41481;DHT22;27217;51.220;5.308;2023-03-24T01:38:05;12.20;99.90
41481;DHT22;27217;51.220;5.308;2023-03-24T01:40:33;12.30;99.90
41481;DHT22;27217;51.220;5.308;2023-03-24T01:42:59;12.30;99.90
41481;DHT22;27217;51.220;5.308;2023-03-24T01:50:44;12.30;99.90
41481;DHT22;27217;51.220;5.308;2023-03-24T01:53:11;12.30;99.90
41481;DHT22;27217;51.220;5.308;2023-03-24T01:55:37;12.30;99.90
41481;DHT22;27217;51.220;5.308;2023-03-24T01:58:04;12.20;99.90
41481;DHT22;27217;51.220;5.308;2023-03-24T02:00:32;12.20;99.90
41481;DHT22;27217;51.220;5.308;2023-03-24T02:03:05;12.20;99.90
41481;DHT22;27217;51.220;5.308;2023-03-24T02:05:34;12.20;99.90
41481;DHT22;27217;51.220;5.308;2023-03-24T02:08:16;12.30;99.90
41481;DHT22;27217;51.220;5.308;2023-03-24T02:10:51;12.20;99.90
41481;DHT22;27217;51.220;5.308;2023-03-24T02:13:19;12.30;99.90
41481;DHT22;27217;51.220;5.308;2023-03-24T02:18:39;12.40;99.90
41481;DHT22;27217;51.220;5.308;2023-03-24T02:21:16;12.40;99.90
41481;DHT22;27217;51.220;5.308;2023-03-24T02:29:51;12.50;99.90
41481;DHT22;27217;51.220;5.308;2023-03-24T02:37:51;12.40;99.90
41481;DHT22;27217;51.220;5.308;2023-03-24T02:40:33;12.50;99.90
41481;DHT22;27217;51.220;5.308;2023-03-24T02:48:36;12.40;99.90
41481;DHT22;27217;51.220;5.308;2023-03-24T02:59:02;12.40;99.90
41481;DHT22;27217;51.220;5.308;2023-03-24T03:01:43;12.40;99.90
41481;DHT22;27217;51.220;5.308;2023-03-24T03:04:27;12.50;99.90
41481;DHT22;27217;51.220;5.308;2023-03-24T03:06:56;12.70;99.90
41481;DHT22;27217;51.220;5.308;2023-03-24T03:09:26;12.60;99.90
41481;DHT22;27217;51.220;5.308;2023-03-24T03:11:56;12.70;99.90
41481;DHT22;27217;51.220;5.308;2023-03-24T03:17:23;12.30;99.90
41481;DHT22;27217;51.220;5.308;2023-03-24T03:19:58;12.30;99.90
41481;DHT22;27217;51.220;5.308;2023-03-24T03:22:54;12.20;99.90
41481;DHT22;27217;51.220;5.308;2023-03-24T03:25:24;12.30;99.90
41481;DHT22;27217;51.220;5.308;2023-03-24T03:27:54;12.30;99.90
41481;DHT22;27217;51.220;5.308;2023-03-24T03:30:49;12.30;99.90
41481;DHT22;27217;51.220;5.308;2023-03-24T03:33:21;12.10;99.90
41481;DHT22;27217;51.220;5.308;2023-03-24T03:36:02;12.10;99.90
41481;DHT22;27217;51.220;5.308;2023-03-24T03:38:55;12.00;99.90
41481;DHT22;27217;51.220;5.308;2023-03-24T03:41:24;12.10;99.90
41481;DHT22;27217;51.220;5.308;2023-03-24T03:43:51;12.10;99.90
41481;DHT22;27217;51.220;5.308;2023-03-24T03:46:17;12.00;99.90
41481;DHT22;27217;51.220;5.308;2023-03-24T03:48:44;12.00;99.90
41481;DHT22;27217;51.220;5.308;2023-03-24T03:51:11;11.90;99.90
41481;DHT22;27217;51.220;5.308;2023-03-24T03:54:10;11.80;99.90
41481;DHT22;27217;51.220;5.308;2023-03-24T03:56:37;11.70;99.90
41481;DHT22;27217;51.220;5.308;2023-03-24T03:59:05;11.60;99.90
41481;DHT22;27217;51.220;5.308;2023-03-24T04:01:34;11.70;99.90
41481;DHT22;27217;51.220;5.308;2023-03-24T04:09:51;11.20;99.90
41481;DHT22;27217;51.220;5.308;2023-03-24T04:12:51;11.20;99.90
41481;DHT22;27217;51.220;5.308;2023-03-24T04:18:20;11.10;99.90
41481;DHT22;27217;51.220;5.308;2023-03-24T04:29:09;11.10;99.90
41481;DHT22;27217;51.220;5.308;2023-03-24T04:31:47;11.00;99.90
41481;DHT22;27217;51.220;5.308;2023-03-24T04:34:19;11.00;99.90
41481;DHT22;27217;51.220;5.308;2023-03-24T04:37:07;11.00;99.90
41481;DHT22;27217;51.220;5.308;2023-03-24T04:39:40;10.80;99.90
41481;DHT22;27217;51.220;5.308;2023-03-24T04:42:15;10.80;99.90
41481;DHT22;27217;51.220;5.308;2023-03-24T04:44:43;10.90;99.90
41481;DHT22;27217;51.220;5.308;2023-03-24T04:47:10;10.90;99.90
41481;DHT22;27217;51.220;5.308;2023-03-24T04:49:38;10.80;99.90
41481;DHT22;27217;51.220;5.308;2023-03-24T04:52:04;10.90;99.90
41481;DHT22;27217;51.220;5.308;2023-03-24T04:54:31;10.90;99.90
41481;DHT22;27217;51.220;5.308;2023-03-24T04:56:59;10.90;99.90
41481;DHT22;27217;51.220;5.308;2023-03-24T04:59:27;10.90;99.90
41481;DHT22;27217;51.220;5.308;2023-03-24T05:01:53;10.80;99.90
41481;DHT22;27217;51.220;5.308;2023-03-24T05:04:26;10.90;99.90
41481;DHT22;27217;51.220;5.308;2023-03-24T05:06:53;10.90;99.90
41481;DHT22;27217;51.220;5.308;2023-03-24T05:09:22;10.90;99.90
41481;DHT22;27217;51.220;5.308;2023-03-24T05:11:49;10.80;99.90
41481;DHT22;27217;51.220;5.308;2023-03-24T05:14:16;10.80;99.90
41481;DHT22;27217;51.220;5.308;2023-03-24T05:16:42;10.80;99.90
41481;DHT22;27217;51.220;5.308;2023-03-24T05:19:08;10.70;99.90
41481;DHT22;27217;51.220;5.308;2023-03-24T05:21:35;10.70;99.90
41481;DHT22;27217;51.220;5.308;2023-03-24T05:24:01;10.80;99.90
41481;DHT22;27217;51.220;5.308;2023-03-24T05:26:27;10.60;99.90
41481;DHT22;27217;51.220;5.308;2023-03-24T05:28:53;10.70;99.90
41481;DHT22;27217;51.220;5.308;2023-03-24T05:31:20;10.60;99.90
41481;DHT22;27217;51.220;5.308;2023-03-24T05:33:45;10.40;99.90
41481;DHT22;27217;51.220;5.308;2023-03-24T05:36:11;10.50;99.90
41481;DHT22;27217;51.220;5.308;2023-03-24T05:38:37;10.40;99.90
41481;DHT22;27217;51.220;5.308;2023-03-24T05:41:03;10.30;99.90
41481;DHT22;27217;51.220;5.308;2023-03-24T05:43:30;10.40;99.90
41481;DHT22;27217;51.220;5.308;2023-03-24T05:45:57;10.40;99.90
41481;DHT22;27217;51.220;5.308;2023-03-24T05:48:25;10.50;99.90
41481;DHT22;27217;51.220;5.308;2023-03-24T05:50:52;10.60;99.90
41481;DHT22;27217;51.220;5.308;2023-03-24T05:53:18;10.70;99.90
41481;DHT22;27217;51.220;5.308;2023-03-24T05:55:45;10.60;99.90
41481;DHT22;27217;51.220;5.308;2023-03-24T05:58:12;10.70;99.90
41481;DHT22;27217;51.220;5.308;2023-03-24T06:00:40;10.50;99.90
41481;DHT22;27217;51.220;5.308;2023-03-24T06:03:06;10.70;99.90
41481;DHT22;27217;51.220;5.308;2023-03-24T06:05:32;10.70;99.90
41481;DHT22;27217;51.220;5.308;2023-03-24T06:07:59;10.50;99.90
41481;DHT22;27217;51.220;5.308;2023-03-24T06:10:26;10.50;99.90
41481;DHT22;27217;51.220;5.308;2023-03-24T06:12:54;10.60;99.90
41481;DHT22;27217;51.220;5.308;2023-03-24T06:15:21;10.50;99.90
41481;DHT22;27217;51.220;5.308;2023-03-24T06:17:47;10.40;99.90
41481;DHT22;27217;51.220;5.308;2023-03-24T06:20:15;10.40;99.90
41481;DHT22;27217;51.220;5.308;2023-03-24T06:22:44;10.60;99.90
41481;DHT22;27217;51.220;5.308;2023-03-24T06:25:10;10.60;99.90
41481;DHT22;27217;51.220;5.308;2023-03-24T06:27:37;10.50;99.90
41481;DHT22;27217;51.220;5.308;2023-03-24T06:30:04;10.60;99.90
41481;DHT22;27217;51.220;5.308;2023-03-24T06:32:30;10.50;99.90
41481;DHT22;27217;51.220;5.308;2023-03-24T06:34:55;10.60;99.90
41481;DHT22;27217;51.220;5.308;2023-03-24T06:37:22;10.60;99.90
41481;DHT22;27217;51.220;5.308;2023-03-24T06:39:48;10.70;99.90
41481;DHT22;27217;51.220;5.308;2023-03-24T06:42:17;10.80;99.90
41481;DHT22;27217;51.220;5.308;2023-03-24T06:44:43;10.70;99.90
41481;DHT22;27217;51.220;5.308;2023-03-24T06:47:09;10.70;99.90
41481;DHT22;27217;51.220;5.308;2023-03-24T06:49:55;10.80;99.90
41481;DHT22;27217;51.220;5.308;2023-03-24T06:52:21;10.70;99.90
41481;DHT22;27217;51.220;5.308;2023-03-24T06:54:49;10.70;99.90
41481;DHT22;27217;51.220;5.308;2023-03-24T06:57:15;10.80;99.90
41481;DHT22;27217;51.220;5.308;2023-03-24T06:59:42;10.60;99.90
41481;DHT22;27217;51.220;5.308;2023-03-24T07:02:10;10.60;99.90
41481;DHT22;27217;51.220;5.308;2023-03-24T07:04:37;10.70;99.90
41481;DHT22;27217;51.220;5.308;2023-03-24T07:07:03;10.70;99.90
41481;DHT22;27217;51.220;5.308;2023-03-24T07:09:29;10.80;99.90
41481;DHT22;27217;51.220;5.308;2023-03-24T07:11:55;10.80;99.90
41481;DHT22;27217;51.220;5.308;2023-03-24T07:14:20;10.80;99.90
41481;DHT22;27217;51.220;5.308;2023-03-24T07:16:50;10.90;99.90
41481;DHT22;27217;51.220;5.308;2023-03-24T07:19:17;10.80;99.90
41481;DHT22;27217;51.220;5.308;2023-03-24T07:21:42;10.80;99.90
41481;DHT22;27217;51.220;5.308;2023-03-24T07:24:08;11.00;99.90
41481;DHT22;27217;51.220;5.308;2023-03-24T07:26:34;11.00;99.90
41481;DHT22;27217;51.220;5.308;2023-03-24T07:29:00;10.90;99.90
41481;DHT22;27217;51.220;5.308;2023-03-24T07:31:26;10.90;99.90
41481;DHT22;27217;51.220;5.308;2023-03-24T07:33:53;10.90;99.90
41481;DHT22;27217;51.220;5.308;2023-03-24T07:36:18;10.90;99.90
41481;DHT22;27217;51.220;5.308;2023-03-24T07:38:44;11.10;99.90
41481;DHT22;27217;51.220;5.308;2023-03-24T07:41:10;11.10;99.90
41481;DHT22;27217;51.220;5.308;2023-03-24T07:43:38;11.00;99.90
41481;DHT22;27217;51.220;5.308;2023-03-24T07:46:04;11.10;99.90
41481;DHT22;27217;51.220;5.308;2023-03-24T07:48:30;11.10;99.90
41481;DHT22;27217;51.220;5.308;2023-03-24T07:50:56;11.10;99.90
41481;DHT22;27217;51.220;5.308;2023-03-24T07:53:22;11.20;99.90
41481;DHT22;27217;51.220;5.308;2023-03-24T07:55:48;11.20;99.90
41481;DHT22;27217;51.220;5.308;2023-03-24T07:58:14;11.30;99.90
41481;DHT22;27217;51.220;5.308;2023-03-24T08:00:40;11.30;99.90
41481;DHT22;27217;51.220;5.308;2023-03-24T08:03:12;11.30;99.90
41481;DHT22;27217;51.220;5.308;2023-03-24T08:05:39;11.40;99.90
41481;DHT22;27217;51.220;5.308;2023-03-24T08:08:06;11.50;99.90
41481;DHT22;27217;51.220;5.308;2023-03-24T08:10:32;11.60;99.90
41481;DHT22;27217;51.220;5.308;2023-03-24T08:12:58;11.70;99.90
41481;DHT22;27217;51.220;5.308;2023-03-24T08:15:25;11.70;99.90
41481;DHT22;27217;51.220;5.308;2023-03-24T08:17:51;11.80;99.90
41481;DHT22;27217;51.220;5.308;2023-03-24T08:20:18;12.10;99.90
41481;DHT22;27217;51.220;5.308;2023-03-24T08:22:47;12.20;99.90
41481;DHT22;27217;51.220;5.308;2023-03-24T08:25:18;12.60;99.90
41481;DHT22;27217;51.220;5.308;2023-03-24T08:27:45;12.80;99.90
41481;DHT22;27217;51.220;5.308;2023-03-24T08:30:24;12.70;99.90
41481;DHT22;27217;51.220;5.308;2023-03-24T08:32:56;12.90;99.90
41481;DHT22;27217;51.220;5.308;2023-03-24T08:35:29;12.50;99.90
41481;DHT22;27217;51.220;5.308;2023-03-24T08:37:56;12.50;99.90
41481;DHT22;27217;51.220;5.308;2023-03-24T08:40:24;12.40;99.90
41481;DHT22;27217;51.220;5.308;2023-03-24T08:42:53;12.30;99.90
41481;DHT22;27217;51.220;5.308;2023-03-24T08:45:21;12.40;99.90
41481;DHT22;27217;51.220;5.308;2023-03-24T08:47:50;12.50;99.90
41481;DHT22;27217;51.220;5.308;2023-03-24T08:50:21;12.30;99.90
41481;DHT22;27217;51.220;5.308;2023-03-24T08:52:47;12.30;99.90
41481;DHT22;27217;51.220;5.308;2023-03-24T08:55:14;12.70;99.90
41481;DHT22;27217;51.220;5.308;2023-03-24T08:57:41;12.90;99.90
41481;DHT22;27217;51.220;5.308;2023-03-24T09:00:07;12.70;99.90
41481;DHT22;27217;51.220;5.308;2023-03-24T09:02:48;12.80;99.90
41481;DHT22;27217;51.220;5.308;2023-03-24T09:05:15;12.90;99.90
41481;DHT22;27217;51.220;5.308;2023-03-24T09:07:43;12.90;99.90
41481;DHT22;27217;51.220;5.308;2023-03-24T09:10:09;13.20;99.90
41481;DHT22;27217;51.220;5.308;2023-03-24T09:12:37;13.10;99.90
41481;DHT22;27217;51.220;5.308;2023-03-24T09:15:04;13.10;99.90
41481;DHT22;27217;51.220;5.308;2023-03-24T09:17:31;12.90;99.90
41481;DHT22;27217;51.220;5.308;2023-03-24T09:19:57;12.80;99.90
41481;DHT22;27217;51.220;5.308;2023-03-24T09:22:23;12.70;99.90
41481;DHT22;27217;51.220;5.308;2023-03-24T09:24:49;12.90;99.90
41481;DHT22;27217;51.220;5.308;2023-03-24T09:27:15;12.70;99.90
41481;DHT22;27217;51.220;5.308;2023-03-24T09:29:41;12.60;99.90
41481;DHT22;27217;51.220;5.308;2023-03-24T09:32:07;12.40;99.90
41481;DHT22;27217;51.220;5.308;2023-03-24T09:34:33;12.40;99.90
41481;DHT22;27217;51.220;5.308;2023-03-24T09:36:59;12.30;99.90
41481;DHT22;27217;51.220;5.308;2023-03-24T09:39:26;12.40;99.90
41481;DHT22;27217;51.220;5.308;2023-03-24T09:41:53;12.70;99.90
41481;DHT22;27217;51.220;5.308;2023-03-24T09:44:43;12.90;99.90
41481;DHT22;27217;51.220;5.308;2023-03-24T09:49:37;12.70;99.90
41481;DHT22;27217;51.220;5.308;2023-03-24T09:52:08;12.70;99.90
41481;DHT22;27217;51.220;5.308;2023-03-24T09:57:32;12.70;99.90
41481;DHT22;27217;51.220;5.308;2023-03-24T09:59:58;12.70;99.90
41481;DHT22;27217;51.220;5.308;2023-03-24T10:02:27;12.90;99.90
41481;DHT22;27217;51.220;5.308;2023-03-24T10:04:53;12.80;99.90
41481;DHT22;27217;51.220;5.308;2023-03-24T10:08:26;13.30;99.90
41481;DHT22;27217;51.220;5.308;2023-03-24T10:10:35;13.50;99.90
41481;DHT22;27217;51.220;5.308;2023-03-24T10:13:19;13.60;99.90
41481;DHT22;27217;51.220;5.308;2023-03-24T10:15:51;13.50;99.90
41481;DHT22;27217;51.220;5.308;2023-03-24T10:21:26;13.30;99.90
41481;DHT22;27217;51.220;5.308;2023-03-24T10:26:51;13.20;99.90
41481;DHT22;27217;51.220;5.308;2023-03-24T10:29:26;13.40;99.90
41481;DHT22;27217;51.220;5.308;2023-03-24T10:31:56;13.60;99.90
41481;DHT22;27217;51.220;5.308;2023-03-24T10:34:27;13.50;99.90
41481;DHT22;27217;51.220;5.308;2023-03-24T10:37:00;13.50;99.90
41481;DHT22;27217;51.220;5.308;2023-03-24T10:39:29;13.40;99.90
41481;DHT22;27217;51.220;5.308;2023-03-24T10:41:56;13.60;99.90
41481;DHT22;27217;51.220;5.308;2023-03-24T10:44:23;13.60;99.90
41481;DHT22;27217;51.220;5.308;2023-03-24T10:46:53;13.80;99.90
41481;DHT22;27217;51.220;5.308;2023-03-24T10:49:21;13.80;99.90
41481;DHT22;27217;51.220;5.308;2023-03-24T10:51:51;13.90;99.90
41481;DHT22;27217;51.220;5.308;2023-03-24T10:54:27;13.80;99.90
41481;DHT22;27217;51.220;5.308;2023-03-24T10:59:37;14.50;99.90
41481;DHT22;27217;51.220;5.308;2023-03-24T11:04:39;15.10;99.90
41481;DHT22;27217;51.220;5.308;2023-03-24T11:07:12;16.10;99.90
41481;DHT22;27217;51.220;5.308;2023-03-24T11:09:43;16.30;99.90
41481;DHT22;27217;51.220;5.308;2023-03-24T11:12:26;16.30;99.90
41481;DHT22;27217;51.220;5.308;2023-03-24T11:15:12;15.40;99.90
41481;DHT22;27217;51.220;5.308;2023-03-24T11:17:46;15.00;99.90
41481;DHT22;27217;51.220;5.308;2023-03-24T11:20:21;14.60;99.90
41481;DHT22;27217;51.220;5.308;2023-03-24T11:22:57;14.50;99.90
41481;DHT22;27217;51.220;5.308;2023-03-24T11:25:28;14.80;99.90
41481;DHT22;27217;51.220;5.308;2023-03-24T11:28:06;15.50;99.90
41481;DHT22;27217;51.220;5.308;2023-03-24T11:30:49;14.90;99.90
41481;DHT22;27217;51.220;5.308;2023-03-24T11:33:27;14.80;99.90
41481;DHT22;27217;51.220;5.308;2023-03-24T11:35:58;14.80;99.90
41481;DHT22;27217;51.220;5.308;2023-03-24T11:38:29;15.30;99.90
41481;DHT22;27217;51.220;5.308;2023-03-24T11:40:59;16.00;99.90
41481;DHT22;27217;51.220;5.308;2023-03-24T11:43:31;15.40;99.90
41481;DHT22;27217;51.220;5.308;2023-03-24T11:46:20;15.20;99.90
41481;DHT22;27217;51.220;5.308;2023-03-24T11:51:50;16.60;99.90
41481;DHT22;27217;51.220;5.308;2023-03-24T11:54:20;16.10;99.90
41481;DHT22;27217;51.220;5.308;2023-03-24T11:56:51;15.40;99.90
41481;DHT22;27217;51.220;5.308;2023-03-24T12:05:42;14.60;99.90
41481;DHT22;27217;51.220;5.308;2023-03-24T12:21:52;14.90;99.90
41481;DHT22;27217;51.220;5.308;2023-03-24T12:26:59;13.30;99.90
41481;DHT22;27217;51.220;5.308;2023-03-24T12:29:35;12.90;99.90
41481;DHT22;27217;51.220;5.308;2023-03-24T12:32:19;12.20;99.90
41481;DHT22;27217;51.220;5.308;2023-03-24T12:35:18;11.60;99.90
41481;DHT22;27217;51.220;5.308;2023-03-24T12:56:48;12.50;99.90
41481;DHT22;27217;51.220;5.308;2023-03-24T12:59:22;14.00;99.90
41481;DHT22;27217;51.220;5.308;2023-03-24T13:04:31;13.10;99.90
41481;DHT22;27217;51.220;5.308;2023-03-24T13:14:59;12.30;99.90
41481;DHT22;27217;51.220;5.308;2023-03-24T13:17:29;12.70;99.90
41481;DHT22;27217;51.220;5.308;2023-03-24T13:19:57;12.40;99.90
41481;DHT22;27217;51.220;5.308;2023-03-24T13:22:24;12.30;99.90
41481;DHT22;27217;51.220;5.308;2023-03-24T13:24:52;12.10;99.90
41481;DHT22;27217;51.220;5.308;2023-03-24T13:27:32;11.90;99.90
41481;DHT22;27217;51.220;5.308;2023-03-24T13:30:22;12.20;99.90
41481;DHT22;27217;51.220;5.308;2023-03-24T13:32:54;11.90;99.90
41481;DHT22;27217;51.220;5.308;2023-03-24T13:38:33;10.80;99.90
41481;DHT22;27217;51.220;5.308;2023-03-24T13:41:03;11.30;99.90
41481;DHT22;27217;51.220;5.308;2023-03-24T13:43:30;13.10;99.90
41481;DHT22;27217;51.220;5.308;2023-03-24T13:46:00;14.50;99.90
41481;DHT22;27217;51.220;5.308;2023-03-24T13:48:36;16.10;99.90
41481;DHT22;27217;51.220;5.308;2023-03-24T13:51:05;17.50;99.90
41481;DHT22;27217;51.220;5.308;2023-03-24T13:53:38;18.30;99.90
41481;DHT22;27217;51.220;5.308;2023-03-24T13:56:08;18.40;99.90
41481;DHT22;27217;51.220;5.308;2023-03-24T13:59:07;16.60;99.90
41481;DHT22;27217;51.220;5.308;2023-03-24T14:01:42;14.50;99.90
41481;DHT22;27217;51.220;5.308;2023-03-24T14:06:51;13.50;99.90
41481;DHT22;27217;51.220;5.308;2023-03-24T14:09:27;13.20;99.90
41481;DHT22;27217;51.220;5.308;2023-03-24T14:14:29;12.00;99.90
41481;DHT22;27217;51.220;5.308;2023-03-24T14:22:39;12.30;99.90
41481;DHT22;27217;51.220;5.308;2023-03-24T14:25:27;14.40;99.90
41481;DHT22;27217;51.220;5.308;2023-03-24T14:28:47;15.50;99.90
41481;DHT22;27217;51.220;5.308;2023-03-24T14:33:38;18.10;99.90
41481;DHT22;27217;51.220;5.308;2023-03-24T14:36:05;18.60;99.90
41481;DHT22;27217;51.220;5.308;2023-03-24T14:38:40;19.20;99.90
41481;DHT22;27217;51.220;5.308;2023-03-24T14:41:16;19.20;99.90
41481;DHT22;27217;51.220;5.308;2023-03-24T14:43:58;18.30;99.90
41481;DHT22;27217;51.220;5.308;2023-03-24T14:46:45;17.60;99.90
41481;DHT22;27217;51.220;5.308;2023-03-24T14:49:28;18.00;99.90
41481;DHT22;27217;51.220;5.308;2023-03-24T14:55:14;17.60;99.90
41481;DHT22;27217;51.220;5.308;2023-03-24T14:57:46;16.80;99.90
41481;DHT22;27217;51.220;5.308;2023-03-24T15:00:18;15.50;99.90
41481;DHT22;27217;51.220;5.308;2023-03-24T15:02:51;14.70;99.90
41481;DHT22;27217;51.220;5.308;2023-03-24T15:10:26;14.40;99.90
41481;DHT22;27217;51.220;5.308;2023-03-24T15:12:56;14.40;99.90
41481;DHT22;27217;51.220;5.308;2023-03-24T15:15:24;14.60;99.90
41481;DHT22;27217;51.220;5.308;2023-03-24T15:17:50;15.10;99.90
41481;DHT22;27217;51.220;5.308;2023-03-24T15:20:32;16.30;99.90
41481;DHT22;27217;51.220;5.308;2023-03-24T15:23:44;16.10;99.90
41481;DHT22;27217;51.220;5.308;2023-03-24T15:26:13;16.00;99.90
41481;DHT22;27217;51.220;5.308;2023-03-24T15:28:39;15.40;99.90
41481;DHT22;27217;51.220;5.308;2023-03-24T15:31:05;15.50;99.90
41481;DHT22;27217;51.220;5.308;2023-03-24T15:33:42;15.50;99.90
41481;DHT22;27217;51.220;5.308;2023-03-24T15:36:18;15.60;99.90
41481;DHT22;27217;51.220;5.308;2023-03-24T15:38:48;15.70;99.90
41481;DHT22;27217;51.220;5.308;2023-03-24T15:41:17;15.70;99.90
41481;DHT22;27217;51.220;5.308;2023-03-24T15:43:51;15.30;99.90
41481;DHT22;27217;51.220;5.308;2023-03-24T15:46:28;14.80;99.90
41481;DHT22;27217;51.220;5.308;2023-03-24T15:48:57;14.60;99.90
41481;DHT22;27217;51.220;5.308;2023-03-24T15:51:49;14.60;99.90
41481;DHT22;27217;51.220;5.308;2023-03-24T15:54:25;14.00;99.90
41481;DHT22;27217;51.220;5.308;2023-03-24T15:57:10;14.10;99.90
41481;DHT22;27217;51.220;5.308;2023-03-24T15:59:46;14.00;99.90
41481;DHT22;27217;51.220;5.308;2023-03-24T16:05:24;14.10;99.90
41481;DHT22;27217;51.220;5.308;2023-03-24T16:08:05;15.30;99.90
41481;DHT22;27217;51.220;5.308;2023-03-24T16:13:15;15.60;99.90
41481;DHT22;27217;51.220;5.308;2023-03-24T16:15:46;15.30;99.90
41481;DHT22;27217;51.220;5.308;2023-03-24T16:18:21;14.80;99.90
41481;DHT22;27217;51.220;5.308;2023-03-24T16:20:48;14.30;99.90
41481;DHT22;27217;51.220;5.308;2023-03-24T16:23:16;14.20;99.90
41481;DHT22;27217;51.220;5.308;2023-03-24T16:25:42;14.70;99.90
41481;DHT22;27217;51.220;5.308;2023-03-24T16:28:11;15.80;99.90
41481;DHT22;27217;51.220;5.308;2023-03-24T16:30:39;16.20;99.90
41481;DHT22;27217;51.220;5.308;2023-03-24T16:33:06;16.20;99.90
41481;DHT22;27217;51.220;5.308;2023-03-24T16:35:33;16.50;99.90
41481;DHT22;27217;51.220;5.308;2023-03-24T16:37:59;17.20;99.90
41481;DHT22;27217;51.220;5.308;2023-03-24T16:40:35;17.50;99.90
41481;DHT22;27217;51.220;5.308;2023-03-24T16:43:01;17.30;99.90
41481;DHT22;27217;51.220;5.308;2023-03-24T16:45:28;17.20;99.90
41481;DHT22;27217;51.220;5.308;2023-03-24T16:47:55;16.60;99.90
41481;DHT22;27217;51.220;5.308;2023-03-24T16:50:34;16.20;99.90
41481;DHT22;27217;51.220;5.308;2023-03-24T16:53:01;15.90;99.90
41481;DHT22;27217;51.220;5.308;2023-03-24T16:55:29;15.50;99.90
41481;DHT22;27217;51.220;5.308;2023-03-24T16:57:55;15.20;99.90
41481;DHT22;27217;51.220;5.308;2023-03-24T17:00:21;15.10;99.90
41481;DHT22;27217;51.220;5.308;2023-03-24T17:02:48;14.80;99.90
41481;DHT22;27217;51.220;5.308;2023-03-24T17:05:25;14.60;99.90
41481;DHT22;27217;51.220;5.308;2023-03-24T17:07:54;14.50;99.90
41481;DHT22;27217;51.220;5.308;2023-03-24T17:10:21;14.30;99.90
41481;DHT22;27217;51.220;5.308;2023-03-24T17:12:49;14.20;99.90
41481;DHT22;27217;51.220;5.308;2023-03-24T17:15:27;14.00;99.90
41481;DHT22;27217;51.220;5.308;2023-03-24T17:17:53;13.80;99.90
41481;DHT22;27217;51.220;5.308;2023-03-24T17:20:20;13.80;99.90
41481;DHT22;27217;51.220;5.308;2023-03-24T17:22:49;13.80;99.90
41481;DHT22;27217;51.220;5.308;2023-03-24T17:25:18;13.60;99.90
41481;DHT22;27217;51.220;5.308;2023-03-24T17:27:45;13.60;99.90
41481;DHT22;27217;51.220;5.308;2023-03-24T17:30:19;13.50;99.90
41481;DHT22;27217;51.220;5.308;2023-03-24T17:32:46;13.60;99.90
41481;DHT22;27217;51.220;5.308;2023-03-24T17:35:14;13.30;99.90
41481;DHT22;27217;51.220;5.308;2023-03-24T17:37:40;13.10;99.90
41481;DHT22;27217;51.220;5.308;2023-03-24T17:40:08;13.10;99.90
41481;DHT22;27217;51.220;5.308;2023-03-24T17:42:36;13.00;99.90
41481;DHT22;27217;51.220;5.308;2023-03-24T17:45:03;12.90;99.90
41481;DHT22;27217;51.220;5.308;2023-03-24T17:47:30;13.10;99.90
41481;DHT22;27217;51.220;5.308;2023-03-24T17:49:55;13.30;99.90
41481;DHT22;27217;51.220;5.308;2023-03-24T17:52:22;13.10;99.90
41481;DHT22;27217;51.220;5.308;2023-03-24T17:54:47;13.10;99.90
41481;DHT22;27217;51.220;5.308;2023-03-24T17:57:16;13.10;99.90
41481;DHT22;27217;51.220;5.308;2023-03-24T17:59:42;12.90;99.90
41481;DHT22;27217;51.220;5.308;2023-03-24T18:02:11;12.80;99.90
41481;DHT22;27217;51.220;5.308;2023-03-24T18:04:37;12.90;99.90
41481;DHT22;27217;51.220;5.308;2023-03-24T18:07:04;12.80;99.90
41481;DHT22;27217;51.220;5.308;2023-03-24T18:09:33;12.80;99.90
41481;DHT22;27217;51.220;5.308;2023-03-24T18:11:58;12.60;99.90
41481;DHT22;27217;51.220;5.308;2023-03-24T18:14:24;12.30;99.90
41481;DHT22;27217;51.220;5.308;2023-03-24T18:16:51;12.00;99.90
41481;DHT22;27217;51.220;5.308;2023-03-24T18:19:16;11.60;99.90
41481;DHT22;27217;51.220;5.308;2023-03-24T18:21:43;11.60;99.90
41481;DHT22;27217;51.220;5.308;2023-03-24T18:24:09;11.40;99.90
41481;DHT22;27217;51.220;5.308;2023-03-24T18:26:35;11.30;99.90